• Join FlightAware (Why Join?)
  • Login
  • US Flag 
10:03AM EST


 

Airport Tracker/Info


-or-


 

Live Flight TrackerFlight Track Log ✈ SWA268 ✈ 05-Apr-2013 ✈ KSNA - KLAS

Flight Track Log - Related Links

Times and Time Zones

All times are in EDT time to prevent confusion due to time zone crossing. See the SWA268 flight status page for this flight to view local times or setup timezone preferences in your user account.

Time Position Orientation Groundspeed Altitude Reporting Facility
EDT Latitude Longitude Course Direction KTS MPH feet Rate Location/Type
12:06PM 33.6500 -117.8833 194° South 134 154 1,400  Level Southern California TRACON
12:07PM 33.6114 -117.8953 194° South 154 177 2,800 1,260 Climbing Los Angeles Center
12:08PM 33.5583 -117.9019 186° South 185 213 4,200 2,400 Climbing Los Angeles Center
12:09PM 33.5317 -117.9678 244° Southwest 230 265 7,800 3,480 Climbing Los Angeles Center
12:10PM 33.5742 -118.0250 312° West 249 287 11,400 3,000 Climbing Los Angeles Center
12:11PM 33.6528 -118.0450 348° North 293 337 14,000 2,760 Climbing Los Angeles Center
12:12PM 33.7642 -118.0508 358° North 336 387 17,200 2,940 Climbing Los Angeles Center
12:13PM 33.8558 -117.9881 30° Northeast 387 445 20,100 2,700 Climbing Los Angeles Center
12:14PM 33.9450 -117.9064 37° Northeast 403 464 22,800 2,520 Climbing Los Angeles Center
12:15PM 34.0267 -117.8014 47° Northeast 427 491 25,400 2,820 Climbing Los Angeles Center
12:16PM 34.1072 -117.6986 47° Northeast 425 489 28,700 1,740 Climbing Los Angeles Center
12:17PM 34.2031 -117.5769 46° Northeast 419 482 29,000 120 Climbing Los Angeles Center
12:18PM 34.2819 -117.4744 47° Northeast 417 480 29,000  Level Los Angeles Center
12:19PM 34.3628 -117.3706 47° Northeast 423 487 29,000  Level Los Angeles Center
12:20PM 34.4436 -117.2639 47° Northeast 417 480 29,000  Level Los Angeles Center
12:21PM 34.5228 -117.1628 46° Northeast 415 478 29,000  Level Los Angeles Center
12:22PM 34.6017 -117.0586 47° Northeast 420 483 29,000  Level Los Angeles Center
12:23PM 34.6797 -116.9581 47° Northeast 414 476 29,000  Level Los Angeles Center
12:24PM 34.7717 -116.8372 47° Northeast 408 470 29,000  Level Los Angeles Center
12:26PM 34.8489 -116.7347 47° Northeast 412 474 29,000 -300 Level Los Angeles Center
12:27PM 34.9269 -116.6353 46° Northeast 410 472 28,500 -1,260 Descending Los Angeles Center
12:28PM 35.0028 -116.5319 48° Northeast 410 472 26,500 -1,980 Descending Los Angeles Center
12:29PM 35.0781 -116.4331 47° Northeast 403 464 24,500 -1,260 Descending Los Angeles Center
12:30PM 35.1675 -116.3167 47° Northeast 396 456 24,000 -540 Descending Los Angeles Center
12:31PM 35.2486 -116.2200 44° Northeast 396 456 23,400 -1,200 Descending Los Angeles Center
12:32PM 35.3192 -116.1281 47° Northeast 386 444 21,600 -1,740 Descending Los Angeles Center
12:33PM 35.3906 -116.0369 46° Northeast 372 428 19,800 -1,680 Descending Los Angeles Center
12:34PM 35.4606 -115.9486 46° Northeast 364 419 18,100 -1,800 Descending Los Angeles Center
12:35PM 35.5183 -115.8758 46° Northeast 358 412 16,700 -1,860 Descending Los Angeles Center
12:35PM 35.5364 -115.8517 47° Northeast 354 407 16,200 -1,620 Descending Los Angeles Center
12:36PM 35.6017 -115.7714 45° Northeast 340 391 14,500 -1,800 Descending Los Angeles Center
12:37PM 35.6614 -115.6981 45° Northeast 341 392 13,000 -1,500 Descending Los Angeles Center
12:37PM 35.6689 -115.6872 50° Northeast 342 394 13,000 -240 Level Los Angeles Center
12:38PM 35.7281 -115.6158 44° Northeast 341 392 12,800 -540 Descending Los Angeles Center
12:38PM 35.7522 -115.5931 37° Northeast 337 388 12,500 -840 Descending Los Angeles Center
12:39PM 35.8053 -115.5539 31° Northeast 331 381 12,000 -540 Descending Los Angeles Center
12:39PM 35.8303 -115.5339 33° Northeast 332 382 12,000  Level Los Angeles Center
12:40PM 35.8825 -115.4917 33° Northeast 330 380 12,000  Level Los Angeles Center
12:40PM 35.9067 -115.4722 33° Northeast 330 380 12,000  Level Los Angeles Center
12:41PM 35.9625 -115.4314 31° Northeast 334 384 12,000  Level Los Angeles Center
12:41PM 35.9839 -115.4122 36° Northeast 330 380 12,000 -720 Level Los Angeles Center
12:42PM 36.0253 -115.3631 44° Northeast 310 357 11,300 -1,080 Descending Los Angeles Center
12:42PM 36.0283 -115.3333 83° East 314 361 10,900 -1,500 Descending Los Angeles Center
12:43PM 36.0217 -115.2553 96° East 293 337 9,800 -1,680 Descending Los Angeles Center
12:43PM 36.0183 -115.2147 96° East 294 338 9,200 -1,320 Descending Los Angeles Center
12:44PM 36.0158 -115.1589 93° East 278 320 8,500 -1,200 Descending Los Angeles Center
12:44PM 36.0133 -115.1214 95° East 281 323 8,000 -540 Descending Los Angeles Center
12:45PM 36.0100 -115.0731 95° East 238 274 8,000 -240 Level Los Angeles Center
12:45PM 36.0089 -115.0403 92° East 252 290 7,800 -1,020 Descending Los Angeles Center
12:46PM 36.0089 -114.9989 90° East 208 239 7,000 -1,260 Descending Los Angeles Center
12:46PM 36.0114 -114.9725 83° East 217 250 6,500 -1,320 Descending Los Angeles Center
12:47PM 36.0439 -114.9608 16° North 189 217 5,700 -1,260 Descending Los Angeles Center
12:47PM 36.0575 -114.9683 336° Northwest 192 221 5,200 -1,620 Descending Los Angeles Center
12:48PM 36.0703 -115.0025 295° West 167 192 4,100 -1,500 Descending Los Angeles Center
12:48PM 36.0764 -115.0178 296° West 170 196 3,700 -900 Descending Los Angeles Center
12:49PM 36.0744 -115.0517 266° West 153 176 3,200 -900 Descending Los Angeles Center
12:49PM 36.0744 -115.0761 270° West 151 174 2,800 -720 Descending Los Angeles Center
12:50PM 36.0739 -115.1078 269° West 141 162 2,400 -720 Descending Los Angeles Center
12:50PM 36.0742 -115.1244 271° West 144 166 2,100 -720 Descending Los Angeles Center
12:52PM 36.0667 -115.1500 270° West  Level FlightAware Approximate
12:59PM 36.0801 -115.1523 270° West  Level Estimated